Time;durP1;ratioP1;P1;durP2;ratioP2;P2;SDS_P1;SDS_P2;PMS_P1;PMS_P2;Temp;Humidity;BMP_temperature;BMP_pressure;BME280_temperature;BME280_humidity;BME280_pressure;Samples;Min_cycle;Max_cycle;Signal;HPM_P1;HPM_P2
2021/10/13 00:00:58;;;;;;;59.25;41.13;;;;;;;5.81;100.00;98719.44;2107592;28;20295;-72
2021/10/13 00:02:00;;;;;;;61.88;41.70;;;;;;;5.80;100.00;98717.88;2116496;28;20196;-72
2021/10/13 00:03:04;;;;;;;62.55;42.80;;;;;;;5.80;100.00;98723.16;2116767;27;20228;-72
2021/10/13 00:04:06;;;;;;;63.45;43.22;;;;;;;5.81;100.00;98719.44;2116448;28;20254;-72
2021/10/13 00:05:11;;;;;;;69.70;43.03;;;;;;;5.80;100.00;98722.38;2116243;28;20209;-72
2021/10/13 00:06:12;;;;;;;65.68;43.15;;;;;;;5.80;100.00;98717.09;2116579;27;20624;-72
2021/10/13 00:07:16;;;;;;;70.35;43.72;;;;;;;5.80;100.00;98719.72;2116458;28;20189;-72
2021/10/13 00:08:18;;;;;;;64.82;44.30;;;;;;;5.77;100.00;98722.94;2116222;28;20664;-72
2021/10/13 00:09:26;;;;;;;60.17;42.20;;;;;;;5.79;100.00;98726.09;2108315;28;20193;-72
2021/10/13 00:10:29;;;;;;;69.80;43.63;;;;;;;5.76;100.00;98722.16;2116762;28;20173;-72
2021/10/13 00:11:36;;;;;;;69.55;45.33;;;;;;;5.75;100.00;98720.56;2116338;27;20223;-69
2021/10/13 00:12:43;;;;;;;69.22;44.58;;;;;;;5.79;100.00;98729.53;2116110;28;20718;-71
2021/10/13 00:13:49;;;;;;;67.18;45.42;;;;;;;5.79;100.00;98729.53;2117212;28;20177;-71
2021/10/13 00:14:56;;;;;;;65.47;43.25;;;;;;;5.79;100.00;98721.59;2115879;28;20193;-71
2021/10/13 00:15:59;;;;;;;71.10;46.13;;;;;;;5.76;100.00;98719.50;2108819;28;20292;-71
2021/10/13 00:17:05;;;;;;;66.28;45.08;;;;;;;5.81;100.00;98723.97;2116325;28;20216;-71
2021/10/13 00:18:10;;;;;;;72.68;45.60;;;;;;;5.76;100.00;98716.06;2117222;28;20608;-71
2021/10/13 00:19:14;;;;;;;66.55;43.55;;;;;;;5.81;100.00;98730.03;2115858;28;20643;-72
2021/10/13 00:20:15;;;;;;;70.38;45.28;;;;;;;5.77;100.00;98723.72;2116396;28;20197;-71
2021/10/13 00:21:19;;;;;;;68.95;45.58;;;;;;;5.75;100.00;98725.84;2117052;28;20188;-72
2021/10/13 00:22:23;;;;;;;70.30;45.63;;;;;;;5.76;100.00;98729.28;2117011;28;20655;-70
2021/10/13 00:23:28;;;;;;;79.15;48.05;;;;;;;5.75;100.00;98725.84;2116742;28;20565;-71
2021/10/13 00:24:32;;;;;;;71.75;47.45;;;;;;;5.75;100.00;98719.78;2117180;28;20265;-71
2021/10/13 00:25:38;;;;;;;72.13;47.80;;;;;;;5.77;100.00;98725.59;2116834;28;20237;-70
2021/10/13 00:26:39;;;;;;;75.60;45.97;;;;;;;5.76;100.00;98724.78;2116096;28;20200;-71
2021/10/13 00:27:44;;;;;;;67.97;45.67;;;;;;;5.83;100.00;98727.16;2107960;28;20231;-70
2021/10/13 00:28:45;;;;;;;71.18;45.40;;;;;;;5.81;100.00;98730.03;2116306;28;20308;-71
2021/10/13 00:29:48;;;;;;;65.43;45.90;;;;;;;5.81;100.00;98729.25;2116239;28;20205;-71
2021/10/13 00:30:56;;;;;;;72.15;47.17;;;;;;;5.80;100.00;98722.38;2107988;28;20201;-71
2021/10/13 00:32:02;;;;;;;70.30;49.25;;;;;;;5.80;100.00;98732.97;2116225;28;20185;-72
2021/10/13 00:33:06;;;;;;;73.47;48.10;;;;;;;5.77;100.00;98733.53;2116814;28;20193;-70
2021/10/13 00:34:10;;;;;;;71.63;47.63;;;;;;;5.78;100.00;98729.81;2116716;28;20553;-71
2021/10/13 00:35:14;;;;;;;71.20;46.35;;;;;;;5.75;100.00;98731.16;2116101;28;20185;-71
2021/10/13 00:36:18;;;;;;;70.97;47.35;;;;;;;5.73;100.00;98733.25;2116213;28;20185;-72
2021/10/13 00:37:22;;;;;;;68.80;45.78;;;;;;;5.73;100.00;98729.81;2116323;27;20272;-71
2021/10/13 00:38:25;;;;;;;72.68;46.53;;;;;;;5.71;100.00;98724.00;2116277;28;20198;-71
2021/10/13 00:39:28;;;;;;;68.22;45.40;;;;;;;5.75;100.00;98727.72;2116875;27;20208;-72
2021/10/13 00:40:30;;;;;;;69.45;47.30;;;;;;;5.72;100.00;98722.94;2116802;28;20197;-72
2021/10/13 00:41:35;;;;;;;75.22;47.53;;;;;;;5.73;100.00;98729.81;2116527;28;20224;-72
2021/10/13 00:42:38;;;;;;;74.07;47.45;;;;;;;5.70;100.00;98717.13;2116381;28;20273;-71
2021/10/13 00:43:43;;;;;;;71.55;45.90;;;;;;;5.71;100.00;98729.31;2116097;28;20241;-71
2021/10/13 00:44:48;;;;;;;74.15;47.33;;;;;;;5.68;100.00;98731.44;2116066;28;20213;-71
2021/10/13 00:45:52;;;;;;;73.13;46.22;;;;;;;5.70;100.00;98725.88;2116448;27;20230;-71
2021/10/13 00:46:55;;;;;;;71.53;47.20;;;;;;;5.72;100.00;98721.09;2116257;28;20206;-71
2021/10/13 00:47:57;;;;;;;69.15;46.40;;;;;;;5.76;100.00;98730.09;2115895;28;20225;-71
2021/10/13 00:49:00;;;;;;;69.20;47.47;;;;;;;5.71;100.00;98724.81;2107648;28;20201;-71
2021/10/13 00:50:05;;;;;;;75.97;46.63;;;;;;;5.71;100.00;98732.75;2107829;28;20585;-71
2021/10/13 00:51:07;;;;;;;71.72;47.70;;;;;;;5.75;100.00;98727.72;2115873;28;20662;-71
2021/10/13 00:52:12;;;;;;;73.55;47.35;;;;;;;5.73;100.00;98732.47;2116010;28;20197;-71
2021/10/13 00:53:16;;;;;;;78.72;47.25;;;;;;;5.72;100.00;98730.88;2108293;28;20784;-71
2021/10/13 00:54:22;;;;;;;73.53;46.97;;;;;;;5.74;100.00;98731.44;2108186;28;20284;-71
2021/10/13 00:55:26;;;;;;;72.38;46.63;;;;;;;5.74;100.00;98737.50;2116134;28;20173;-71
2021/10/13 00:56:28;;;;;;;73.65;45.97;;;;;;;5.74;100.00;98731.44;2115904;28;20205;-71
2021/10/13 00:57:30;;;;;;;74.90;47.75;;;;;;;5.73;100.00;98729.81;2116165;28;20194;-71
2021/10/13 00:58:35;;;;;;;74.30;49.53;;;;;;;5.69;100.00;98726.94;2116590;28;20189;-71
2021/10/13 00:59:41;;;;;;;76.68;48.72;;;;;;;5.70;100.00;98733.03;2115730;27;20234;-71
2021/10/13 01:00:49;;;;;;;74.22;48.70;;;;;;;5.70;100.00;98727.72;2116060;28;20193;-71
2021/10/13 01:01:56;;;;;;;77.45;48.47;;;;;;;5.68;100.00;98736.72;2116530;28;20193;-71
2021/10/13 01:03:10;;;;;;;76.72;46.65;;;;;;;5.70;100.00;98730.38;2116532;28;20564;-71
2021/10/13 01:04:23;;;;;;;71.18;46.05;;;;;;;5.76;100.00;98724.00;2115954;28;20688;-71
2021/10/13 01:06:10;;;;;;;62.97;43.75;;;;;;;5.74;100.00;98726.94;2116217;28;20197;-71
2021/10/13 01:07:22;;;;;;;68.80;44.13;;;;;;;5.74;100.00;98723.50;2090831;28;20179;-71
2021/10/13 01:08:33;;;;;;;69.45;45.47;;;;;;;5.72;100.00;98725.59;2090935;28;20332;-71
2021/10/13 01:09:42;;;;;;;67.20;45.85;;;;;;;5.74;100.00;98724.28;2101195;28;20666;-72
2021/10/13 01:10:53;;;;;;;67.90;44.75;;;;;;;5.74;100.00;98721.63;2116679;28;20173;-71
2021/10/13 01:12:14;;;;;;;76.18;45.50;;;;;;;5.76;100.00;98724.78;2115654;28;20223;-72
2021/10/13 01:13:26;;;;;;;70.15;44.67;;;;;;;5.74;100.00;98729.56;2115816;28;20181;-71
2021/10/13 01:14:37;;;;;;;66.97;44.75;;;;;;;5.75;100.00;98725.84;2115913;28;20200;-71
2021/10/13 01:15:50;;;;;;;70.50;46.30;;;;;;;5.75;100.00;98731.16;2116517;28;20252;-72
2021/10/13 01:16:55;;;;;;;72.70;44.20;;;;;;;5.73;100.00;98725.31;2115791;28;20193;-71
2021/10/13 01:18:06;;;;;;;69.57;44.38;;;;;;;5.78;100.00;98732.47;2115897;28;20192;-71
2021/10/13 01:19:14;;;;;;;63.75;45.95;;;;;;;5.79;100.00;98734.81;2116565;28;20215;-71
2021/10/13 01:20:29;;;;;;;67.00;44.72;;;;;;;5.75;100.00;98725.84;2116068;27;20201;-71
2021/10/13 01:21:47;;;;;;;70.35;45.47;;;;;;;5.78;100.00;98735.88;2115879;28;20564;-71
2021/10/13 01:23:23;;;;;;;66.10;46.08;;;;;;;5.79;100.00;98736.69;2116152;27;20196;-71
2021/10/13 01:24:35;;;;;;;65.90;45.00;;;;;;;5.75;100.00;98736.44;2079118;28;20210;-71
2021/10/13 01:25:46;;;;;;;66.22;45.17;;;;;;;5.75;100.00;98739.09;2084296;28;20550;-72
2021/10/13 01:27:03;;;;;;;65.75;44.70;;;;;;;5.74;100.00;98742.81;2115777;28;20191;-71
2021/10/13 01:28:09;;;;;;;66.28;43.33;;;;;;;5.74;100.00;98740.16;2116003;28;20305;-71
2021/10/13 01:29:15;;;;;;;68.80;45.42;;;;;;;5.72;100.00;98744.13;2116332;28;20193;-71
2021/10/13 01:30:18;;;;;;;63.08;42.45;;;;;;;5.75;100.00;98741.75;2116060;27;20216;-71
2021/10/13 01:31:24;;;;;;;66.65;44.33;;;;;;;5.72;100.00;98741.47;2106961;28;20201;-71
2021/10/13 01:32:27;;;;;;;66.43;46.28;;;;;;;5.75;100.00;98743.59;2108358;28;20205;-71
2021/10/13 01:33:37;;;;;;;69.50;45.05;;;;;;;5.75;100.00;98731.16;2115739;28;20601;-71
2021/10/13 01:34:41;;;;;;;66.82;46.40;;;;;;;5.74;100.00;98740.16;2116027;27;20200;-71
2021/10/13 01:35:47;;;;;;;68.72;45.92;;;;;;;5.73;100.00;98733.25;2115903;28;20185;-71
2021/10/13 01:36:54;;;;;;;70.47;45.60;;;;;;;5.73;100.00;98737.75;2116551;28;20248;-71
2021/10/13 01:38:03;;;;;;;67.22;43.80;;;;;;;5.75;100.00;98735.66;2115638;28;20667;-71
2021/10/13 01:39:07;;;;;;;68.85;45.65;;;;;;;5.72;100.00;98730.88;2115798;28;20165;-71
2021/10/13 01:40:15;;;;;;;67.90;44.33;;;;;;;5.71;100.00;98735.38;2115539;28;20181;-70
2021/10/13 01:41:20;;;;;;;72.32;45.60;;;;;;;5.78;100.00;98745.69;2115909;28;20170;-72
2021/10/13 01:42:25;;;;;;;69.25;46.78;;;;;;;5.73;100.00;98741.19;2115881;27;20240;-71
2021/10/13 01:43:33;;;;;;;68.38;43.33;;;;;;;5.72;100.00;98738.81;2115593;28;20558;-71
2021/10/13 01:44:38;;;;;;;72.10;46.45;;;;;;;5.70;100.00;98746.25;2116296;28;20170;-71
2021/10/13 01:45:44;;;;;;;69.22;45.78;;;;;;;5.68;100.00;98739.38;2116160;28;20212;-71
2021/10/13 01:46:48;;;;;;;71.75;45.17;;;;;;;5.70;100.00;98738.31;2115744;27;20627;-71
2021/10/13 01:47:52;;;;;;;70.22;45.70;;;;;;;5.68;100.00;98736.72;2115702;28;20603;-71
2021/10/13 01:48:57;;;;;;;65.88;45.05;;;;;;;5.64;100.00;98738.31;2115848;28;20211;-71
2021/10/13 01:50:01;;;;;;;71.82;44.80;;;;;;;5.67;100.00;98744.94;2107830;28;20292;-71
2021/10/13 01:51:04;;;;;;;69.97;44.75;;;;;;;5.70;100.00;98743.59;2115700;28;20185;-71
2021/10/13 01:52:08;;;;;;;71.35;46.42;;;;;;;5.66;100.00;98738.88;2115538;28;20219;-71
2021/10/13 01:53:12;;;;;;;66.75;44.35;;;;;;;5.68;100.00;98741.25;2115615;28;20196;-71
2021/10/13 01:54:15;;;;;;;75.65;45.05;;;;;;;5.65;100.00;98742.56;2115527;28;20207;-71
2021/10/13 01:55:19;;;;;;;70.45;43.95;;;;;;;5.68;100.00;98747.31;2115559;28;20186;-71
2021/10/13 01:56:24;;;;;;;64.97;42.00;;;;;;;5.67;100.00;98745.75;2116094;28;20212;-71
2021/10/13 01:57:28;;;;;;;71.20;43.88;;;;;;;5.66;100.00;98743.38;2116141;28;20201;-71
2021/10/13 01:58:33;;;;;;;66.65;41.83;;;;;;;5.65;100.00;98747.09;2116120;27;20188;-71
2021/10/13 01:59:37;;;;;;;66.88;43.00;;;;;;;5.65;100.00;98750.53;2115625;27;20224;-71
2021/10/13 02:00:40;;;;;;;63.00;40.58;;;;;;;5.65;100.00;98747.09;2107610;28;20197;-71
2021/10/13 02:01:42;;;;;;;68.90;43.78;;;;;;;5.65;100.00;98753.16;2115649;28;20743;-71
2021/10/13 02:02:45;;;;;;;67.15;42.75;;;;;;;5.63;100.00;98752.63;2115245;28;20229;-71
2021/10/13 02:03:48;;;;;;;65.60;41.75;;;;;;;5.66;100.00;98753.97;2115529;28;20693;-71
2021/10/13 02:04:52;;;;;;;68.18;43.63;;;;;;;5.64;100.00;98750.75;2115245;28;20197;-71
2021/10/13 02:05:58;;;;;;;65.82;40.63;;;;;;;5.63;100.00;98749.97;2115514;28;20189;-71
2021/10/13 02:07:01;;;;;;;61.55;42.10;;;;;;;5.63;100.00;98749.97;2116045;28;20257;-71
2021/10/13 02:08:02;;;;;;;63.42;42.88;;;;;;;5.64;100.00;98745.47;2116263;28;20643;-71
2021/10/13 02:09:05;;;;;;;59.92;41.00;;;;;;;5.63;100.00;98760.56;2115400;28;20295;-71
2021/10/13 02:10:10;;;;;;;58.97;40.60;;;;;;;5.61;100.00;98753.97;2115367;28;20200;-71
2021/10/13 02:11:14;;;;;;;63.90;42.13;;;;;;;5.62;100.00;98758.97;2114602;28;20258;-71
2021/10/13 02:12:17;;;;;;;64.00;40.22;;;;;;;5.60;100.00;98757.69;2107268;28;20228;-71
2021/10/13 02:13:22;;;;;;;67.40;42.58;;;;;;;5.59;100.00;98754.25;2115333;28;20234;-71
2021/10/13 02:14:25;;;;;;;64.82;41.65;;;;;;;5.59;100.00;98754.25;2114098;28;20736;-71
2021/10/13 02:15:28;;;;;;;60.63;40.40;;;;;;;5.60;100.00;98755.03;2115512;28;20181;-71
2021/10/13 02:16:33;;;;;;;64.05;40.65;;;;;;;5.61;100.00;98759.25;2116203;28;20225;-71
2021/10/13 02:17:41;;;;;;;63.88;40.58;;;;;;;5.66;100.00;98769.84;2115864;28;20560;-71
2021/10/13 02:18:47;;;;;;;62.60;41.08;;;;;;;5.67;100.00;98758.97;2115940;28;20193;-71
2021/10/13 02:19:52;;;;;;;65.97;40.88;;;;;;;5.66;100.00;98762.69;2115871;28;20204;-71
2021/10/13 02:20:55;;;;;;;61.28;40.97;;;;;;;5.71;100.00;98767.16;2116237;28;20624;-71
2021/10/13 02:21:59;;;;;;;62.92;41.03;;;;;;;5.70;100.00;98762.13;2115221;28;20193;-71
2021/10/13 02:23:03;;;;;;;64.10;41.42;;;;;;;5.68;100.00;98767.69;2115385;28;20191;-71
2021/10/13 02:24:07;;;;;;;65.38;42.30;;;;;;;5.67;100.00;98777.50;2115860;28;20201;-71
2021/10/13 02:25:12;;;;;;;62.85;41.92;;;;;;;5.63;100.00;98771.16;2115354;28;20201;-71
2021/10/13 02:26:19;;;;;;;66.47;40.50;;;;;;;5.67;100.00;98771.41;2115353;28;20676;-71
2021/10/13 02:27:25;;;;;;;64.25;40.03;;;;;;;5.67;100.00;98780.16;2115882;27;20242;-71
2021/10/13 02:28:31;;;;;;;60.05;41.10;;;;;;;5.70;100.00;98786.75;2115921;28;20245;-71
2021/10/13 02:29:34;;;;;;;61.97;42.08;;;;;;;5.71;100.00;98782.25;2115212;28;20212;-71
2021/10/13 02:30:39;;;;;;;64.13;41.42;;;;;;;5.71;100.00;98782.25;2115170;28;20675;-71
2021/10/13 02:31:46;;;;;;;60.90;42.65;;;;;;;5.70;100.00;98783.31;2115404;28;20197;-71
2021/10/13 02:32:48;;;;;;;61.55;41.15;;;;;;;5.72;100.00;98783.81;2115348;28;20192;-71
2021/10/13 02:33:56;;;;;;;67.53;42.42;;;;;;;5.73;100.00;98786.19;2115728;28;20246;-71
2021/10/13 02:35:00;;;;;;;65.95;42.28;;;;;;;5.70;100.00;98785.97;2115369;28;20197;-71
2021/10/13 02:36:02;;;;;;;66.05;41.85;;;;;;;5.71;100.00;98777.75;2115073;28;20208;-71
2021/10/13 02:37:05;;;;;;;70.47;43.63;;;;;;;5.67;100.00;98780.16;2115383;28;20193;-71
2021/10/13 02:38:07;;;;;;;57.83;40.60;;;;;;;5.68;100.00;98781.72;2115958;27;20207;-71
2021/10/13 02:39:11;;;;;;;61.95;41.38;;;;;;;5.72;100.00;98783.81;2115918;28;20189;-71
2021/10/13 02:40:13;;;;;;;62.53;40.75;;;;;;;5.70;100.00;98785.97;2116002;28;20310;-72
2021/10/13 02:41:17;;;;;;;59.13;41.25;;;;;;;5.71;100.00;98788.31;2115356;27;20207;-70
2021/10/13 02:42:17;;;;;;;59.72;42.20;;;;;;;5.68;100.00;98781.72;2107148;28;20206;-71
2021/10/13 02:43:20;;;;;;;67.20;42.27;;;;;;;5.65;100.00;98784.94;2115211;28;20273;-71
2021/10/13 02:44:23;;;;;;;63.10;42.70;;;;;;;5.72;100.00;98783.81;2115377;27;20683;-71
2021/10/13 02:45:29;;;;;;;62.00;43.05;;;;;;;5.70;100.00;98791.25;2106005;28;20293;-71
2021/10/13 02:46:34;;;;;;;61.40;41.33;;;;;;;5.66;100.00;98786.50;2107398;28;20289;-71
2021/10/13 02:47:41;;;;;;;60.13;41.25;;;;;;;5.66;100.00;98791.00;2107408;28;20224;-71
2021/10/13 02:48:49;;;;;;;56.05;40.67;;;;;;;5.65;100.00;98798.16;2114734;28;20693;-71
2021/10/13 02:50:00;;;;;;;60.92;40.60;;;;;;;5.64;100.00;98796.53;2115971;28;20185;-71
2021/10/13 02:51:07;;;;;;;61.17;41.15;;;;;;;5.63;100.00;98792.31;2115418;28;20201;-71
2021/10/13 02:52:15;;;;;;;60.05;40.67;;;;;;;5.61;100.00;98799.75;2107881;28;20214;-71
2021/10/13 02:53:21;;;;;;;57.50;41.35;;;;;;;5.60;100.00;98798.16;2107636;28;20236;-71
2021/10/13 02:54:28;;;;;;;63.45;41.28;;;;;;;5.64;100.00;98804.47;2107670;28;20568;-70
2021/10/13 02:55:34;;;;;;;58.72;40.80;;;;;;;5.63;100.00;98799.47;2114311;28;20335;-71
2021/10/13 02:56:40;;;;;;;60.88;40.20;;;;;;;5.64;100.00;98799.19;2115149;28;20642;-71
2021/10/13 02:57:49;;;;;;;60.80;40.55;;;;;;;5.68;100.00;98804.75;2114964;28;20197;-71
2021/10/13 02:58:57;;;;;;;56.78;41.10;;;;;;;5.65;100.00;98795.50;2107981;28;20259;-71
2021/10/13 03:00:05;;;;;;;57.97;40.38;;;;;;;5.68;100.00;98800.25;2115313;28;20232;-71
2021/10/13 03:01:12;;;;;;;57.25;39.47;;;;;;;5.67;100.00;98803.97;2114918;28;20312;-71
2021/10/13 03:02:20;;;;;;;57.45;39.60;;;;;;;5.66;100.00;98809.53;2115321;28;20172;-70
2021/10/13 03:03:28;;;;;;;56.53;40.15;;;;;;;5.72;100.00;98807.66;2115617;28;20189;-71
2021/10/13 03:04:35;;;;;;;60.42;39.53;;;;;;;5.71;100.00;98814.00;2115914;28;20221;-71
2021/10/13 03:05:39;;;;;;;60.92;40.47;;;;;;;5.66;100.00;98802.38;2115704;28;20670;-71
2021/10/13 03:06:46;;;;;;;55.25;38.10;;;;;;;5.70;100.00;98809.78;2115266;27;20200;-71
2021/10/13 03:07:49;;;;;;;63.10;41.17;;;;;;;5.68;100.00;98810.84;2115269;28;20175;-70
2021/10/13 03:08:53;;;;;;;54.97;39.42;;;;;;;5.70;100.00;98809.78;2115118;28;20309;-71
2021/10/13 03:09:59;;;;;;;59.83;39.38;;;;;;;5.72;100.00;98807.66;2114960;28;20192;-71
2021/10/13 03:11:03;;;;;;;58.78;40.00;;;;;;;5.71;100.00;98814.00;2115884;28;20185;-71
2021/10/13 03:12:08;;;;;;;59.05;40.15;;;;;;;5.70;100.00;98815.06;2115539;28;20721;-71
2021/10/13 03:13:12;;;;;;;53.53;38.92;;;;;;;5.70;100.00;98818.50;2114847;28;20650;-71
2021/10/13 03:14:15;;;;;;;55.78;39.55;;;;;;;5.70;100.00;98815.06;2114994;28;20211;-71
2021/10/13 03:15:17;;;;;;;57.50;41.05;;;;;;;5.66;100.00;98812.97;2115089;28;20196;-70
2021/10/13 03:16:23;;;;;;;51.97;39.60;;;;;;;5.66;100.00;98815.63;2114961;28;20192;-71
2021/10/13 03:17:27;;;;;;;54.40;38.72;;;;;;;5.64;100.00;98820.38;2115191;28;20204;-71
2021/10/13 03:18:31;;;;;;;54.85;38.63;;;;;;;5.68;100.00;98821.44;2107104;28;20242;-71
2021/10/13 03:19:35;;;;;;;47.60;36.80;;;;;;;5.65;100.00;98821.97;2114977;28;20189;-71
2021/10/13 03:20:38;;;;;;;52.25;37.20;;;;;;;5.63;100.00;98829.38;2115479;28;20196;-70
2021/10/13 03:21:40;;;;;;;45.95;38.63;;;;;;;5.59;100.00;98827.53;2115513;28;20185;-76
2021/10/13 03:22:43;;;;;;;44.88;38.88;;;;;;;5.54;100.00;98825.69;2114654;28;20193;-73
2021/10/13 03:23:47;;;;;;;46.60;36.15;;;;;;;5.54;100.00;98833.63;2114589;28;20734;-70
2021/10/13 03:24:51;;;;;;;46.70;39.33;;;;;;;5.51;100.00;98828.88;2115426;28;20673;-69
2021/10/13 03:25:55;;;;;;;47.88;38.92;;;;;;;5.55;100.00;98827.28;2115437;28;20663;-70
2021/10/13 03:26:59;;;;;;;46.17;38.90;;;;;;;5.52;100.00;98838.41;2115043;28;20274;-71
2021/10/13 03:28:04;;;;;;;48.58;37.55;;;;;;;5.52;100.00;98832.31;2114996;28;20670;-70
2021/10/13 03:29:13;;;;;;;43.63;37.38;;;;;;;5.53;100.00;98834.69;2115679;28;20218;-71
2021/10/13 03:30:16;;;;;;;46.15;37.25;;;;;;;5.54;100.00;98835.47;2114678;28;20204;-71
2021/10/13 03:31:19;;;;;;;44.95;37.50;;;;;;;5.52;100.00;98837.63;2106375;28;20208;-71
2021/10/13 03:32:22;;;;;;;41.63;36.55;;;;;;;5.52;100.00;98843.69;2114796;28;20686;-71
2021/10/13 03:33:26;;;;;;;43.85;35.33;;;;;;;5.52;100.00;98841.03;2115559;28;20185;-71
2021/10/13 03:34:29;;;;;;;40.40;33.90;;;;;;;5.50;100.00;98842.38;2115011;28;20241;-72
2021/10/13 03:35:36;;;;;;;41.30;34.65;;;;;;;5.46;100.00;98836.81;2114379;28;20196;-72
2021/10/13 03:36:44;;;;;;;43.97;37.70;;;;;;;5.43;100.00;98845.31;2115666;28;20165;-73
2021/10/13 03:37:46;;;;;;;39.10;33.78;;;;;;;5.43;100.00;98845.31;2115014;28;20698;-72
2021/10/13 03:38:48;;;;;;;39.92;34.00;;;;;;;5.42;100.00;98842.94;2106883;28;20228;-73
2021/10/13 03:39:50;;;;;;;38.45;34.00;;;;;;;5.47;100.00;98850.84;2114941;28;20192;-73
2021/10/13 03:40:57;;;;;;;38.35;32.80;;;;;;;5.44;100.00;98849.53;2114688;28;20203;-72
2021/10/13 03:42:01;;;;;;;39.30;33.97;;;;;;;5.43;100.00;98855.09;2107320;28;20193;-72
2021/10/13 03:43:04;;;;;;;35.60;31.23;;;;;;;5.38;100.00;98847.94;2115023;28;20185;-72
2021/10/13 03:44:09;;;;;;;37.78;33.45;;;;;;;5.34;100.00;98852.97;2115460;28;20199;-72
2021/10/13 03:45:14;;;;;;;36.38;32.67;;;;;;;5.30;100.00;98846.66;2115529;28;20678;-72
2021/10/13 03:46:23;;;;;;;36.08;30.90;;;;;;;5.28;100.00;98845.31;2115230;28;20679;-72
2021/10/13 03:47:27;;;;;;;36.78;32.80;;;;;;;5.28;100.00;98856.69;2115621;28;20169;-72
2021/10/13 03:48:30;;;;;;;33.97;30.40;;;;;;;5.26;100.00;98860.66;2115573;28;20189;-72
2021/10/13 03:49:38;;;;;;;35.25;30.35;;;;;;;5.24;100.00;98854.84;2115301;28;20660;-72
2021/10/13 03:50:44;;;;;;;32.92;29.45;;;;;;;5.28;100.00;98854.03;2115703;28;20192;-73
2021/10/13 03:51:47;;;;;;;34.97;31.13;;;;;;;5.28;100.00;98856.69;2115363;28;20196;-72
2021/10/13 03:52:52;;;;;;;36.00;32.25;;;;;;;5.25;100.00;98862.50;2114566;28;20223;-72
2021/10/13 03:53:57;;;;;;;34.35;30.83;;;;;;;5.24;100.00;98868.06;2114777;28;20339;-72
2021/10/13 03:54:59;;;;;;;35.47;31.65;;;;;;;5.22;100.00;98865.69;2114902;28;20245;-72
2021/10/13 03:56:02;;;;;;;34.70;31.02;;;;;;;5.21;100.00;98871.22;2114764;28;20185;-73
2021/10/13 03:57:06;;;;;;;34.92;31.02;;;;;;;5.21;100.00;98873.88;2115324;28;20711;-72
2021/10/13 03:58:12;;;;;;;37.90;31.55;;;;;;;5.25;100.00;98869.66;2115371;28;20189;-72
2021/10/13 03:59:17;;;;;;;34.55;30.67;;;;;;;5.21;100.00;98872.06;2115321;28;20197;-72
2021/10/13 04:00:23;;;;;;;34.60;29.60;;;;;;;5.20;100.00;98875.72;2115244;28;20674;-72
2021/10/13 04:01:26;;;;;;;33.53;30.10;;;;;;;5.18;100.00;98874.41;2115267;28;20197;-72
2021/10/13 04:02:31;;;;;;;35.88;30.73;;;;;;;5.18;100.00;98877.06;2115314;28;20298;-72
2021/10/13 04:03:33;;;;;;;37.50;31.40;;;;;;;5.16;100.00;98869.41;2114961;28;20217;-72
2021/10/13 04:04:38;;;;;;;39.90;31.58;;;;;;;5.17;100.00;98868.34;2106457;28;20197;-72
2021/10/13 04:05:41;;;;;;;37.45;31.77;;;;;;;5.17;100.00;98872.84;2114623;28;20651;-72
2021/10/13 04:06:45;;;;;;;39.22;31.55;;;;;;;5.19;100.00;98874.16;2115334;28;20272;-74
2021/10/13 04:07:47;;;;;;;40.17;32.10;;;;;;;5.16;100.00;98863.31;2115329;28;20666;-72
2021/10/13 04:08:51;;;;;;;37.60;32.70;;;;;;;5.18;100.00;98871.78;2115020;28;20204;-72
2021/10/13 04:09:57;;;;;;;37.22;31.48;;;;;;;5.18;100.00;98863.84;2107105;28;20783;-72
2021/10/13 04:11:01;;;;;;;39.22;31.52;;;;;;;5.20;100.00;98877.59;2113653;28;20205;-72
2021/10/13 04:12:05;;;;;;;40.35;32.80;;;;;;;5.23;100.00;98880.50;2115032;28;20758;-72
2021/10/13 04:13:07;;;;;;;40.03;32.40;;;;;;;5.25;100.00;98885.53;2114845;28;20201;-72
2021/10/13 04:14:11;;;;;;;39.08;32.05;;;;;;;5.26;100.00;98879.19;2114727;28;20189;-72
2021/10/13 04:15:18;;;;;;;39.50;32.20;;;;;;;5.28;100.00;98891.06;2114669;28;20204;-72
2021/10/13 04:16:23;;;;;;;38.97;32.05;;;;;;;5.27;100.00;98888.69;2106881;28;20285;-72
2021/10/13 04:17:28;;;;;;;36.50;32.47;;;;;;;5.25;100.00;98883.69;2107042;28;20284;-72
2021/10/13 04:18:37;;;;;;;40.65;32.53;;;;;;;5.25;100.00;98894.25;2114689;28;20193;-72
2021/10/13 04:19:39;;;;;;;41.55;32.08;;;;;;;5.24;100.00;98890.03;2115538;28;20204;-72
2021/10/13 04:20:40;;;;;;;36.20;30.58;;;;;;;5.23;100.00;98898.22;2114871;28;20205;-72
2021/10/13 04:21:46;;;;;;;42.25;31.23;;;;;;;5.22;100.00;98901.94;2106432;28;20587;-72
2021/10/13 04:22:48;;;;;;;39.28;30.63;;;;;;;5.20;100.00;98891.59;2107035;28;20201;-72
2021/10/13 04:23:53;;;;;;;40.50;31.58;;;;;;;5.20;100.00;98896.09;2114720;28;20213;-72
2021/10/13 04:24:58;;;;;;;41.30;32.22;;;;;;;5.18;100.00;98895.56;2115207;28;20200;-72
2021/10/13 04:26:01;;;;;;;39.42;31.40;;;;;;;5.14;100.00;98903.25;2115187;28;20185;-72
2021/10/13 04:27:02;;;;;;;39.60;35.33;;;;;;;5.13;100.00;98909.59;2115370;28;20196;-71
2021/10/13 04:28:05;;;;;;;40.90;33.50;;;;;;;5.09;100.00;98901.38;2115375;28;20651;-71
2021/10/13 04:29:08;;;;;;;36.15;32.63;;;;;;;5.12;100.00;98905.34;2115338;28;20185;-72
2021/10/13 04:30:14;;;;;;;37.40;33.38;;;;;;;5.08;100.00;98905.09;2115177;28;20189;-72
2021/10/13 04:31:16;;;;;;;34.20;30.40;;;;;;;5.11;100.00;98906.41;2115174;28;20599;-72
2021/10/13 04:32:21;;;;;;;34.45;30.95;;;;;;;5.07;100.00;98906.16;2115148;28;20191;-72
2021/10/13 04:33:26;;;;;;;35.25;31.40;;;;;;;5.02;100.00;98908.78;2114920;28;20197;-71
2021/10/13 04:34:32;;;;;;;34.47;30.85;;;;;;;5.01;100.00;98911.69;2115212;28;20207;-72
2021/10/13 04:35:33;;;;;;;33.53;29.90;;;;;;;4.98;100.00;98906.94;2117201;28;20200;-72
2021/10/13 04:36:37;;;;;;;41.42;30.00;;;;;;;5.05;100.00;98907.47;2116154;28;20185;-72
2021/10/13 04:37:40;;;;;;;32.92;28.60;;;;;;;5.03;100.00;98906.94;2116174;28;20307;-72
2021/10/13 04:38:46;;;;;;;32.15;28.70;;;;;;;5.03;100.00;98909.56;2116485;27;20197;-72
2021/10/13 04:39:48;;;;;;;31.88;28.42;;;;;;;5.03;100.00;98907.72;2116311;28;20188;-72
2021/10/13 04:40:55;;;;;;;31.70;28.42;;;;;;;4.94;100.00;98901.38;2116673;28;20195;-72
2021/10/13 04:41:58;;;;;;;31.55;28.05;;;;;;;4.98;100.00;98905.09;2116850;28;20658;-71
2021/10/13 04:43:02;;;;;;;33.10;29.02;;;;;;;4.95;100.00;98908.25;2116760;28;20686;-71
2021/10/13 04:44:05;;;;;;;30.25;27.05;;;;;;;4.90;100.00;98892.38;2116908;28;20572;-72
2021/10/13 04:45:10;;;;;;;29.48;26.38;;;;;;;4.92;100.00;98900.84;2116339;27;20572;-72
2021/10/13 04:46:14;;;;;;;34.28;27.63;;;;;;;4.87;100.00;98905.34;2116096;28;20617;-72
2021/10/13 04:47:17;;;;;;;32.85;29.00;;;;;;;4.83;100.00;98905.84;2116323;27;20200;-72
2021/10/13 04:48:20;;;;;;;31.20;27.88;;;;;;;4.81;100.00;98905.31;2116114;28;20196;-72
2021/10/13 04:49:24;;;;;;;36.55;28.30;;;;;;;4.80;100.00;98898.44;2116261;27;20261;-72
2021/10/13 04:50:31;;;;;;;34.60;28.55;;;;;;;4.83;100.00;98897.91;2116149;28;20287;-72
2021/10/13 04:51:37;;;;;;;32.78;27.73;;;;;;;4.86;100.00;98893.94;2116671;28;20196;-72
2021/10/13 04:52:41;;;;;;;30.98;26.95;;;;;;;4.82;100.00;98901.63;2116789;28;20189;-72
2021/10/13 04:53:47;;;;;;;31.23;28.05;;;;;;;4.81;100.00;98905.31;2116771;28;20626;-72
2021/10/13 04:54:50;;;;;;;33.78;28.13;;;;;;;4.78;100.00;98895.28;2116302;28;20594;-72
2021/10/13 04:55:54;;;;;;;30.65;27.25;;;;;;;4.82;100.00;98903.47;2116114;28;20195;-72
2021/10/13 04:56:58;;;;;;;33.80;27.30;;;;;;;4.76;100.00;98900.03;2116857;28;20665;-72
2021/10/13 04:58:01;;;;;;;31.02;27.73;;;;;;;4.73;100.00;98905.84;2115938;28;20185;-72
2021/10/13 04:59:02;;;;;;;31.63;27.10;;;;;;;4.75;100.00;98908.22;2115980;28;20200;-72
2021/10/13 05:00:07;;;;;;;28.15;25.15;;;;;;;4.75;100.00;98902.94;2116521;28;20731;-72